Aviation Digital Data Service (ADDS)

Output produced by TAFs form (1552 UTC 12 December 2017)
found at http://www.aviationweather.gov/adds/tafs/
 
KCLT 121452Z 27005KT 10SM FEW130 FEW150 BKN190 08/03 A2974 RMK AO2 SLP071 T00780028 55002
KCLT 121401Z 1214/1318 28006KT P6SM SCT150 BKN250 
     FM121600 29010G18KT P6SM SCT045 BKN250 
     FM122200 30013G22KT P6SM FEW250 
     FM130200 31010KT P6SM SKC 
     FM130600 28005KT P6SM SKC 
     FM131300 25007KT P6SM SKC